sensor_id;sensor_type;location;lat;lon;timestamp;pressure;altitude;pressure_sealevel;temperature;humidity
14689;BME280;7432;48.728;9.154;2022-10-16T00:01:35;96511.84;;;14.65;100.00
14689;BME280;7432;48.728;9.154;2022-10-16T00:04:04;96508.47;;;14.64;100.00
14689;BME280;7432;48.728;9.154;2022-10-16T00:06:31;96497.84;;;14.59;100.00
14689;BME280;7432;48.728;9.154;2022-10-16T00:08:57;96499.03;;;14.57;100.00
14689;BME280;7432;48.728;9.154;2022-10-16T00:11:25;96503.59;;;14.55;100.00
14689;BME280;7432;48.728;9.154;2022-10-16T00:13:56;96503.34;;;14.50;100.00
14689;BME280;7432;48.728;9.154;2022-10-16T00:16:23;96510.06;;;14.44;100.00
14689;BME280;7432;48.728;9.154;2022-10-16T00:18:49;96507.84;;;14.41;100.00
14689;BME280;7432;48.728;9.154;2022-10-16T00:21:19;96508.38;;;14.37;100.00
14689;BME280;7432;48.728;9.154;2022-10-16T00:23:46;96501.78;;;14.34;100.00
14689;BME280;7432;48.728;9.154;2022-10-16T00:26:15;96508.56;;;14.35;100.00
14689;BME280;7432;48.728;9.154;2022-10-16T00:28:41;96510.53;;;14.33;100.00
14689;BME280;7432;48.728;9.154;2022-10-16T00:31:10;96501.69;;;14.27;100.00
14689;BME280;7432;48.728;9.154;2022-10-16T00:33:38;96501.88;;;14.26;100.00
14689;BME280;7432;48.728;9.154;2022-10-16T00:36:05;96508.59;;;14.20;100.00
14689;BME280;7432;48.728;9.154;2022-10-16T00:38:33;96494.56;;;14.15;100.00
14689;BME280;7432;48.728;9.154;2022-10-16T00:41:00;96502.25;;;14.08;100.00
14689;BME280;7432;48.728;9.154;2022-10-16T00:43:37;96497.28;;;14.07;100.00
14689;BME280;7432;48.728;9.154;2022-10-16T00:46:08;96499.56;;;14.02;100.00
14689;BME280;7432;48.728;9.154;2022-10-16T00:48:36;96499.31;;;13.97;100.00
14689;BME280;7432;48.728;9.154;2022-10-16T00:51:04;96493.53;;;13.95;100.00
14689;BME280;7432;48.728;9.154;2022-10-16T00:53:32;96499.69;;;13.94;100.00
14689;BME280;7432;48.728;9.154;2022-10-16T00:56:00;96490.94;;;13.95;100.00
14689;BME280;7432;48.728;9.154;2022-10-16T00:58:27;96498.09;;;13.93;100.00
14689;BME280;7432;48.728;9.154;2022-10-16T01:00:54;96507.19;;;13.89;100.00
14689;BME280;7432;48.728;9.154;2022-10-16T01:03:26;96514.13;;;13.88;100.00
14689;BME280;7432;48.728;9.154;2022-10-16T01:05:59;96516.72;;;13.88;100.00
14689;BME280;7432;48.728;9.154;2022-10-16T01:08:34;96514.78;;;13.90;100.00
14689;BME280;7432;48.728;9.154;2022-10-16T01:11:12;96517.19;;;13.92;100.00
14689;BME280;7432;48.728;9.154;2022-10-16T01:13:47;96518.97;;;13.91;100.00
14689;BME280;7432;48.728;9.154;2022-10-16T01:16:19;96521.38;;;13.93;100.00
14689;BME280;7432;48.728;9.154;2022-10-16T01:18:52;96519.59;;;13.93;100.00
14689;BME280;7432;48.728;9.154;2022-10-16T01:21:22;96530.56;;;13.95;100.00
14689;BME280;7432;48.728;9.154;2022-10-16T01:23:59;96535.13;;;13.93;100.00
14689;BME280;7432;48.728;9.154;2022-10-16T01:26:37;96518.59;;;13.94;100.00
14689;BME280;7432;48.728;9.154;2022-10-16T01:29:13;96507.88;;;13.97;100.00
14689;BME280;7432;48.728;9.154;2022-10-16T01:31:44;96501.91;;;13.97;100.00
14689;BME280;7432;48.728;9.154;2022-10-16T01:34:17;96517.78;;;13.94;100.00
14689;BME280;7432;48.728;9.154;2022-10-16T01:36:47;96515.75;;;13.89;100.00
14689;BME280;7432;48.728;9.154;2022-10-16T01:39:19;96508.81;;;13.90;100.00
14689;BME280;7432;48.728;9.154;2022-10-16T01:41:50;96505.94;;;13.85;100.00
14689;BME280;7432;48.728;9.154;2022-10-16T01:44:21;96499.78;;;13.86;100.00
14689;BME280;7432;48.728;9.154;2022-10-16T01:46:51;96498.09;;;13.93;100.00
14689;BME280;7432;48.728;9.154;2022-10-16T01:49:20;96504.84;;;13.94;100.00
14689;BME280;7432;48.728;9.154;2022-10-16T01:51:50;96498.16;;;13.99;100.00
14689;BME280;7432;48.728;9.154;2022-10-16T01:54:19;96500.13;;;13.97;100.00
14689;BME280;7432;48.728;9.154;2022-10-16T01:56:47;96496.56;;;13.98;100.00
14689;BME280;7432;48.728;9.154;2022-10-16T01:59:16;96496.31;;;13.93;100.00
14689;BME280;7432;48.728;9.154;2022-10-16T02:01:48;96492.63;;;14.02;100.00
14689;BME280;7432;48.728;9.154;2022-10-16T02:04:20;96498.78;;;14.01;100.00
14689;BME280;7432;48.728;9.154;2022-10-16T02:06:49;96496.63;;;14.05;100.00
14689;BME280;7432;48.728;9.154;2022-10-16T02:09:16;96494.84;;;14.05;100.00
14689;BME280;7432;48.728;9.154;2022-10-16T02:11:42;96486.53;;;14.10;100.00
14689;BME280;7432;48.728;9.154;2022-10-16T02:14:09;96496.53;;;14.13;100.00
14689;BME280;7432;48.728;9.154;2022-10-16T02:16:38;96500.72;;;14.14;100.00
14689;BME280;7432;48.728;9.154;2022-10-16T02:19:06;96497.94;;;14.15;100.00
14689;BME280;7432;48.728;9.154;2022-10-16T02:21:38;96506.88;;;14.13;100.00
14689;BME280;7432;48.728;9.154;2022-10-16T02:24:10;96510.53;;;14.18;100.00
14689;BME280;7432;48.728;9.154;2022-10-16T02:26:42;96513.75;;;14.20;100.00
14689;BME280;7432;48.728;9.154;2022-10-16T02:29:12;96511.59;;;14.24;100.00
14689;BME280;7432;48.728;9.154;2022-10-16T02:31:45;96494.75;;;14.13;100.00
14689;BME280;7432;48.728;9.154;2022-10-16T02:34:16;96503.22;;;14.22;100.00
14689;BME280;7432;48.728;9.154;2022-10-16T02:36:44;96493.81;;;14.21;100.00
14689;BME280;7432;48.728;9.154;2022-10-16T02:39:11;96485.88;;;14.22;100.00
14689;BME280;7432;48.728;9.154;2022-10-16T02:41:38;96495.06;;;14.25;100.00
14689;BME280;7432;48.728;9.154;2022-10-16T02:44:04;96491.50;;;14.26;100.00
14689;BME280;7432;48.728;9.154;2022-10-16T02:46:30;96497.31;;;14.28;100.00
14689;BME280;7432;48.728;9.154;2022-10-16T02:48:57;96502.66;;;14.26;100.00
14689;BME280;7432;48.728;9.154;2022-10-16T02:51:25;96510.25;;;14.28;100.00
14689;BME280;7432;48.728;9.154;2022-10-16T02:53:51;96508.03;;;14.25;100.00
14689;BME280;7432;48.728;9.154;2022-10-16T02:56:18;96516.59;;;14.25;100.00
14689;BME280;7432;48.728;9.154;2022-10-16T02:58:44;96510.97;;;14.22;100.00
14689;BME280;7432;48.728;9.154;2022-10-16T03:01:10;96518.56;;;14.23;100.00
14689;BME280;7432;48.728;9.154;2022-10-16T03:03:37;96479.06;;;14.00;100.00
14689;BME280;7432;48.728;9.154;2022-10-16T03:06:04;96517.31;;;14.19;100.00
14689;BME280;7432;48.728;9.154;2022-10-16T03:08:32;96514.75;;;14.19;100.00
14689;BME280;7432;48.728;9.154;2022-10-16T03:10:58;96512.06;;;14.13;100.00
14689;BME280;7432;48.728;9.154;2022-10-16T03:13:25;96514.47;;;14.14;100.00
14689;BME280;7432;48.728;9.154;2022-10-16T03:15:51;96517.44;;;14.11;100.00
14689;BME280;7432;48.728;9.154;2022-10-16T03:18:18;96507.22;;;14.10;100.00
14689;BME280;7432;48.728;9.154;2022-10-16T03:20:44;96513.78;;;14.06;100.00
14689;BME280;7432;48.728;9.154;2022-10-16T03:23:11;96517.53;;;14.03;100.00
14689;BME280;7432;48.728;9.154;2022-10-16T03:25:39;96490.75;;;13.96;100.00
14689;BME280;7432;48.728;9.154;2022-10-16T03:28:05;96513.31;;;14.02;100.00
14689;BME280;7432;48.728;9.154;2022-10-16T03:30:32;96513.31;;;14.02;100.00
14689;BME280;7432;48.728;9.154;2022-10-16T03:32:58;96509.94;;;14.02;100.00
14689;BME280;7432;48.728;9.154;2022-10-16T03:35:25;96519.06;;;13.98;100.00
14689;BME280;7432;48.728;9.154;2022-10-16T03:37:51;96514.03;;;13.96;100.00
14689;BME280;7432;48.728;9.154;2022-10-16T03:40:18;96519.22;;;13.96;100.00
14689;BME280;7432;48.728;9.154;2022-10-16T03:42:45;96521.81;;;13.96;100.00
14689;BME280;7432;48.728;9.154;2022-10-16T03:45:12;96518.00;;;13.92;100.00
14689;BME280;7432;48.728;9.154;2022-10-16T03:47:38;96512.81;;;13.92;100.00
14689;BME280;7432;48.728;9.154;2022-10-16T03:50:06;96518.69;;;13.86;100.00
14689;BME280;7432;48.728;9.154;2022-10-16T03:52:32;96527.81;;;13.82;100.00
14689;BME280;7432;48.728;9.154;2022-10-16T03:54:59;96521.84;;;13.82;100.00
14689;BME280;7432;48.728;9.154;2022-10-16T03:57:25;96532.81;;;13.84;100.00
14689;BME280;7432;48.728;9.154;2022-10-16T03:59:53;96526.56;;;13.78;100.00
14689;BME280;7432;48.728;9.154;2022-10-16T04:02:19;96523.16;;;13.78;100.00
14689;BME280;7432;48.728;9.154;2022-10-16T04:04:45;96519.59;;;13.79;100.00
14689;BME280;7432;48.728;9.154;2022-10-16T04:07:12;96519.75;;;13.77;100.00
14689;BME280;7432;48.728;9.154;2022-10-16T04:09:38;96520.56;;;13.78;100.00
14689;BME280;7432;48.728;9.154;2022-10-16T04:12:05;96522.19;;;13.79;100.00
14689;BME280;7432;48.728;9.154;2022-10-16T04:14:31;96519.97;;;13.76;100.00
14689;BME280;7432;48.728;9.154;2022-10-16T04:16:59;96528.34;;;13.78;100.00
14689;BME280;7432;48.728;9.154;2022-10-16T04:19:25;96525.13;;;13.76;100.00
14689;BME280;7432;48.728;9.154;2022-10-16T04:21:52;96519.97;;;13.76;100.00
14689;BME280;7432;48.728;9.154;2022-10-16T04:24:18;96520.78;;;13.76;100.00
14689;BME280;7432;48.728;9.154;2022-10-16T04:26:44;96521.75;;;13.75;100.00
14689;BME280;7432;48.728;9.154;2022-10-16T04:29:11;96523.53;;;13.75;100.00
14689;BME280;7432;48.728;9.154;2022-10-16T04:31:37;96525.13;;;13.76;100.00
14689;BME280;7432;48.728;9.154;2022-10-16T04:34:05;96527.72;;;13.76;100.00
14689;BME280;7432;48.728;9.154;2022-10-16T04:36:31;96529.34;;;13.77;100.00
14689;BME280;7432;48.728;9.154;2022-10-16T04:38:58;96520.94;;;13.75;100.00
14689;BME280;7432;48.728;9.154;2022-10-16T04:41:24;96523.34;;;13.76;100.00
14689;BME280;7432;48.728;9.154;2022-10-16T04:43:50;96522.75;;;13.74;100.00
14689;BME280;7432;48.728;9.154;2022-10-16T04:46:17;96530.94;;;13.78;100.00
14689;BME280;7432;48.728;9.154;2022-10-16T04:48:43;96537.53;;;13.80;100.00
14689;BME280;7432;48.728;9.154;2022-10-16T04:51:11;96538.34;;;13.81;100.00
14689;BME280;7432;48.728;9.154;2022-10-16T04:53:37;96539.75;;;13.83;100.00
14689;BME280;7432;48.728;9.154;2022-10-16T04:56:04;96546.72;;;13.83;100.00
14689;BME280;7432;48.728;9.154;2022-10-16T04:58:31;96549.69;;;13.80;100.00
14689;BME280;7432;48.728;9.154;2022-10-16T05:00:58;96551.28;;;13.81;100.00
14689;BME280;7432;48.728;9.154;2022-10-16T05:03:24;96559.06;;;13.81;100.00
14689;BME280;7432;48.728;9.154;2022-10-16T05:05:51;96559.06;;;13.81;100.00
14689;BME280;7432;48.728;9.154;2022-10-16T05:08:18;96562.44;;;13.81;100.00
14689;BME280;7432;48.728;9.154;2022-10-16T05:10:45;96552.78;;;13.75;100.00
14689;BME280;7432;48.728;9.154;2022-10-16T05:13:11;96559.25;;;13.79;100.00
14689;BME280;7432;48.728;9.154;2022-10-16T05:15:38;96562.63;;;13.80;100.00
14689;BME280;7432;48.728;9.154;2022-10-16T05:18:05;96559.59;;;13.76;100.00
14689;BME280;7432;48.728;9.154;2022-10-16T05:20:31;96561.81;;;13.79;100.00
14689;BME280;7432;48.728;9.154;2022-10-16T05:22:58;96557.47;;;13.80;100.00
14689;BME280;7432;48.728;9.154;2022-10-16T05:25:26;96556.19;;;13.76;100.00
14689;BME280;7432;48.728;9.154;2022-10-16T05:27:52;96552.34;;;13.72;100.00
14689;BME280;7432;48.728;9.154;2022-10-16T05:30:19;96553.06;;;13.65;100.00
14689;BME280;7432;48.728;9.154;2022-10-16T05:32:48;96554.41;;;13.61;100.00
14689;BME280;7432;48.728;9.154;2022-10-16T05:35:16;96556.91;;;13.55;100.00
14689;BME280;7432;48.728;9.154;2022-10-16T05:37:43;96566.19;;;13.49;100.00
14689;BME280;7432;48.728;9.154;2022-10-16T05:40:10;96576.88;;;13.46;100.00
14689;BME280;7432;48.728;9.154;2022-10-16T05:42:38;96568.47;;;13.44;100.00
14689;BME280;7432;48.728;9.154;2022-10-16T05:45:06;96572.22;;;13.42;100.00
14689;BME280;7432;48.728;9.154;2022-10-16T05:47:32;96571.84;;;13.45;100.00
14689;BME280;7432;48.728;9.154;2022-10-16T05:49:59;96566.41;;;13.40;100.00
14689;BME280;7432;48.728;9.154;2022-10-16T05:52:26;96568.84;;;13.41;100.00
14689;BME280;7432;48.728;9.154;2022-10-16T05:54:52;96573.63;;;13.44;100.00
14689;BME280;7432;48.728;9.154;2022-10-16T05:57:19;96578.13;;;13.50;100.00
14689;BME280;7432;48.728;9.154;2022-10-16T05:59:47;96580.47;;;13.60;100.00
14689;BME280;7432;48.728;9.154;2022-10-16T06:02:14;96569.31;;;13.59;100.00
14689;BME280;7432;48.728;9.154;2022-10-16T06:04:40;96587.06;;;13.77;100.00
14689;BME280;7432;48.728;9.154;2022-10-16T06:07:07;96581.38;;;13.82;100.00
14689;BME280;7432;48.728;9.154;2022-10-16T06:09:33;96592.44;;;13.90;100.00
14689;BME280;7432;48.728;9.154;2022-10-16T06:12:00;96587.91;;;13.92;100.00
14689;BME280;7432;48.728;9.154;2022-10-16T06:14:26;96594.94;;;13.98;100.00
14689;BME280;7432;48.728;9.154;2022-10-16T06:16:54;96594.22;;;14.04;100.00
14689;BME280;7432;48.728;9.154;2022-10-16T06:19:20;96597.72;;;14.11;100.00
14689;BME280;7432;48.728;9.154;2022-10-16T06:21:48;96598.44;;;14.20;100.00
14689;BME280;7432;48.728;9.154;2022-10-16T06:24:14;96604.22;;;14.22;100.00
14689;BME280;7432;48.728;9.154;2022-10-16T06:26:40;96605.50;;;14.26;100.00
14689;BME280;7432;48.728;9.154;2022-10-16T06:29:08;96604.84;;;14.24;100.00
14689;BME280;7432;48.728;9.154;2022-10-16T06:31:34;96609.19;;;14.32;100.00
14689;BME280;7432;48.728;9.154;2022-10-16T06:34:02;96600.03;;;14.36;100.00
14689;BME280;7432;48.728;9.154;2022-10-16T06:36:30;96598.97;;;14.45;100.00
14689;BME280;7432;48.728;9.154;2022-10-16T06:38:57;96609.28;;;14.59;100.00
14689;BME280;7432;48.728;9.154;2022-10-16T06:41:23;96611.84;;;14.74;100.00
14689;BME280;7432;48.728;9.154;2022-10-16T06:43:50;96618.91;;;14.80;100.00
14689;BME280;7432;48.728;9.154;2022-10-16T06:46:19;96622.97;;;14.89;100.00
14689;BME280;7432;48.728;9.154;2022-10-16T06:48:46;96626.47;;;14.96;100.00
14689;BME280;7432;48.728;9.154;2022-10-16T06:51:15;96628.56;;;15.07;100.00
14689;BME280;7432;48.728;9.154;2022-10-16T06:53:45;96635.63;;;15.13;100.00
14689;BME280;7432;48.728;9.154;2022-10-16T06:56:14;96639.19;;;15.12;100.00
14689;BME280;7432;48.728;9.154;2022-10-16T06:58:41;96637.22;;;15.14;100.00
14689;BME280;7432;48.728;9.154;2022-10-16T07:01:09;96638.22;;;15.13;100.00
14689;BME280;7432;48.728;9.154;2022-10-16T07:03:36;96647.78;;;15.13;100.00
14689;BME280;7432;48.728;9.154;2022-10-16T07:06:04;96651.00;;;15.15;100.00
14689;BME280;7432;48.728;9.154;2022-10-16T07:08:32;96657.84;;;15.22;99.63
14689;BME280;7432;48.728;9.154;2022-10-16T07:11:00;96650.75;;;15.31;98.91
14689;BME280;7432;48.728;9.154;2022-10-16T07:13:27;96662.06;;;15.44;98.10
14689;BME280;7432;48.728;9.154;2022-10-16T07:15:53;96664.78;;;15.58;98.40
14689;BME280;7432;48.728;9.154;2022-10-16T07:18:20;96674.06;;;15.67;97.69
14689;BME280;7432;48.728;9.154;2022-10-16T07:20:47;96679.31;;;15.73;97.48
14689;BME280;7432;48.728;9.154;2022-10-16T07:23:13;96679.88;;;15.69;97.84
14689;BME280;7432;48.728;9.154;2022-10-16T07:25:41;96685.81;;;15.63;96.48
14689;BME280;7432;48.728;9.154;2022-10-16T07:28:07;96696.22;;;15.63;96.74
14689;BME280;7432;48.728;9.154;2022-10-16T07:30:34;96697.19;;;15.62;97.44
14689;BME280;7432;48.728;9.154;2022-10-16T07:33:01;96699.56;;;15.57;97.43
14689;BME280;7432;48.728;9.154;2022-10-16T07:35:27;96698.38;;;15.59;97.34
14689;BME280;7432;48.728;9.154;2022-10-16T07:37:54;96694.41;;;15.63;97.69
14689;BME280;7432;48.728;9.154;2022-10-16T07:40:20;96699.19;;;15.60;97.16
14689;BME280;7432;48.728;9.154;2022-10-16T07:42:48;96697.56;;;15.59;97.34
14689;BME280;7432;48.728;9.154;2022-10-16T07:45:14;96700.03;;;15.67;97.81
14689;BME280;7432;48.728;9.154;2022-10-16T07:47:41;96706.50;;;15.77;97.37
14689;BME280;7432;48.728;9.154;2022-10-16T07:50:08;96707.31;;;15.78;96.47
14689;BME280;7432;48.728;9.154;2022-10-16T07:52:34;96712.59;;;15.84;96.56
14689;BME280;7432;48.728;9.154;2022-10-16T07:55:01;96714.78;;;15.87;95.66
14689;BME280;7432;48.728;9.154;2022-10-16T07:57:28;96724.63;;;15.92;95.43
14689;BME280;7432;48.728;9.154;2022-10-16T07:59:56;96721.53;;;16.03;95.49
14689;BME280;7432;48.728;9.154;2022-10-16T08:02:22;96725.69;;;16.04;94.95
14689;BME280;7432;48.728;9.154;2022-10-16T08:04:49;96725.91;;;16.02;94.28
14689;BME280;7432;48.728;9.154;2022-10-16T08:07:15;96721.53;;;16.03;94.56
14689;BME280;7432;48.728;9.154;2022-10-16T08:09:41;96718.94;;;16.10;94.27
14689;BME280;7432;48.728;9.154;2022-10-16T08:12:08;96735.59;;;16.15;94.24
14689;BME280;7432;48.728;9.154;2022-10-16T08:14:36;96730.06;;;16.25;93.80
14689;BME280;7432;48.728;9.154;2022-10-16T08:17:03;96731.63;;;16.47;93.76
14689;BME280;7432;48.728;9.154;2022-10-16T08:19:30;96735.97;;;16.68;92.11
14689;BME280;7432;48.728;9.154;2022-10-16T08:21:59;96727.91;;;16.97;91.12
14689;BME280;7432;48.728;9.154;2022-10-16T08:24:25;96731.00;;;17.20;89.68
14689;BME280;7432;48.728;9.154;2022-10-16T08:26:53;96734.53;;;17.60;88.59
14689;BME280;7432;48.728;9.154;2022-10-16T08:29:19;96743.00;;;17.88;86.10
14689;BME280;7432;48.728;9.154;2022-10-16T08:31:46;96741.22;;;18.08;85.65
14689;BME280;7432;48.728;9.154;2022-10-16T08:34:13;96739.97;;;18.37;83.48
14689;BME280;7432;48.728;9.154;2022-10-16T08:36:40;96744.78;;;18.53;82.22
14689;BME280;7432;48.728;9.154;2022-10-16T08:39:06;96756.84;;;18.34;83.11
14689;BME280;7432;48.728;9.154;2022-10-16T08:42:02;96758.66;;;18.54;83.28
14689;BME280;7432;48.728;9.154;2022-10-16T08:44:40;96762.06;;;18.48;82.35
14689;BME280;7432;48.728;9.154;2022-10-16T08:47:13;96758.84;;;18.32;83.07
14689;BME280;7432;48.728;9.154;2022-10-16T08:49:55;96764.25;;;18.18;83.48
14689;BME280;7432;48.728;9.154;2022-10-16T08:52:22;96752.41;;;17.96;84.41
14689;BME280;7432;48.728;9.154;2022-10-16T08:54:55;96754.59;;;17.79;85.65
14689;BME280;7432;48.728;9.154;2022-10-16T08:57:24;96764.00;;;17.67;86.54
14689;BME280;7432;48.728;9.154;2022-10-16T08:59:51;96759.38;;;17.62;88.19
14689;BME280;7432;48.728;9.154;2022-10-16T09:02:24;96769.59;;;17.70;88.63
14689;BME280;7432;48.728;9.154;2022-10-16T09:05:02;96765.25;;;17.91;88.70
14689;BME280;7432;48.728;9.154;2022-10-16T09:07:44;96775.47;;;18.31;86.73
14689;BME280;7432;48.728;9.154;2022-10-16T09:10:29;96787.47;;;18.91;84.08
14689;BME280;7432;48.728;9.154;2022-10-16T09:13:11;96773.44;;;19.43;80.74
14689;BME280;7432;48.728;9.154;2022-10-16T09:15:44;96768.28;;;19.75;76.85
14689;BME280;7432;48.728;9.154;2022-10-16T09:18:20;96760.66;;;19.98;74.67
14689;BME280;7432;48.728;9.154;2022-10-16T09:20:55;96776.91;;;20.06;75.02
14689;BME280;7432;48.728;9.154;2022-10-16T09:23:27;96766.44;;;20.38;73.64
14689;BME280;7432;48.728;9.154;2022-10-16T09:25:55;96788.59;;;20.78;71.91
14689;BME280;7432;48.728;9.154;2022-10-16T09:28:23;96792.47;;;20.94;73.46
14689;BME280;7432;48.728;9.154;2022-10-16T09:30:49;96789.91;;;21.12;73.94
14689;BME280;7432;48.728;9.154;2022-10-16T09:33:18;96795.13;;;21.30;71.97
14689;BME280;7432;48.728;9.154;2022-10-16T09:35:47;96786.91;;;21.56;70.34
14689;BME280;7432;48.728;9.154;2022-10-16T09:38:26;96793.47;;;21.65;69.01
14689;BME280;7432;48.728;9.154;2022-10-16T09:40:53;96787.47;;;21.76;69.16
14689;BME280;7432;48.728;9.154;2022-10-16T09:43:23;96789.13;;;21.41;68.99
14689;BME280;7432;48.728;9.154;2022-10-16T09:45:56;96797.19;;;21.40;70.14
14689;BME280;7432;48.728;9.154;2022-10-16T09:48:25;96790.84;;;21.65;68.73
14689;BME280;7432;48.728;9.154;2022-10-16T09:50:57;96783.34;;;21.80;66.05
14689;BME280;7432;48.728;9.154;2022-10-16T09:53:26;96801.25;;;22.13;65.62
14689;BME280;7432;48.728;9.154;2022-10-16T09:56:03;96797.75;;;22.19;65.63
14689;BME280;7432;48.728;9.154;2022-10-16T09:58:31;96799.94;;;22.22;65.84
14689;BME280;7432;48.728;9.154;2022-10-16T10:00:58;96800.38;;;22.19;65.07
14689;BME280;7432;48.728;9.154;2022-10-16T10:03:33;96800.38;;;22.19;64.29
14689;BME280;7432;48.728;9.154;2022-10-16T10:06:06;96805.41;;;22.32;64.10
14689;BME280;7432;48.728;9.154;2022-10-16T10:08:35;96815.47;;;22.47;64.18
14689;BME280;7432;48.728;9.154;2022-10-16T10:11:01;96795.97;;;22.43;64.41
14689;BME280;7432;48.728;9.154;2022-10-16T10:13:27;96807.84;;;22.46;63.86
14689;BME280;7432;48.728;9.154;2022-10-16T10:15:54;96806.72;;;22.53;63.96
14689;BME280;7432;48.728;9.154;2022-10-16T10:18:21;96805.78;;;22.48;61.35
14689;BME280;7432;48.728;9.154;2022-10-16T10:20:57;96805.91;;;22.53;62.16
14689;BME280;7432;48.728;9.154;2022-10-16T10:23:26;96807.88;;;22.69;61.73
14689;BME280;7432;48.728;9.154;2022-10-16T10:25:58;96815.19;;;22.90;61.29
14689;BME280;7432;48.728;9.154;2022-10-16T10:28:50;96813.72;;;22.94;62.10
14689;BME280;7432;48.728;9.154;2022-10-16T10:31:27;96810.97;;;22.89;62.06
14689;BME280;7432;48.728;9.154;2022-10-16T10:34:00;96818.13;;;22.59;62.21
14689;BME280;7432;48.728;9.154;2022-10-16T10:36:34;96802.59;;;22.57;59.45
14689;BME280;7432;48.728;9.154;2022-10-16T10:39:04;96807.50;;;22.54;62.39
14689;BME280;7432;48.728;9.154;2022-10-16T10:41:51;96809.69;;;22.68;61.14
14689;BME280;7432;48.728;9.154;2022-10-16T10:44:28;96822.63;;;22.81;60.20
14689;BME280;7432;48.728;9.154;2022-10-16T10:47:05;96816.34;;;22.94;60.43
14689;BME280;7432;48.728;9.154;2022-10-16T10:49:44;96817.59;;;22.68;59.76
14689;BME280;7432;48.728;9.154;2022-10-16T10:52:29;96825.09;;;22.53;61.19
14689;BME280;7432;48.728;9.154;2022-10-16T10:55:10;96818.75;;;22.19;61.66
14689;BME280;7432;48.728;9.154;2022-10-16T10:57:56;96822.41;;;21.89;61.99
14689;BME280;7432;48.728;9.154;2022-10-16T11:00:28;96811.44;;;21.62;63.62
14689;BME280;7432;48.728;9.154;2022-10-16T11:03:06;96804.69;;;21.54;61.92
14689;BME280;7432;48.728;9.154;2022-10-16T11:05:42;96828.34;;;21.48;62.85
14689;BME280;7432;48.728;9.154;2022-10-16T11:08:13;96818.16;;;21.58;62.59
14689;BME280;7432;48.728;9.154;2022-10-16T11:10:50;96815.88;;;21.79;62.59
14689;BME280;7432;48.728;9.154;2022-10-16T11:13:26;96808.88;;;21.73;61.74
14689;BME280;7432;48.728;9.154;2022-10-16T11:15:57;96807.88;;;21.74;61.56
14689;BME280;7432;48.728;9.154;2022-10-16T11:18:27;96804.19;;;21.75;62.87
14689;BME280;7432;48.728;9.154;2022-10-16T11:21:00;96803.56;;;21.80;64.02
14689;BME280;7432;48.728;9.154;2022-10-16T11:23:31;96805.50;;;21.84;61.51
14689;BME280;7432;48.728;9.154;2022-10-16T11:26:04;96808.31;;;21.71;62.08
14689;BME280;7432;48.728;9.154;2022-10-16T11:28:37;96807.75;;;21.81;62.12
14689;BME280;7432;48.728;9.154;2022-10-16T11:31:10;96809.53;;;21.87;61.77
14689;BME280;7432;48.728;9.154;2022-10-16T11:33:41;96806.31;;;21.85;62.47
14689;BME280;7432;48.728;9.154;2022-10-16T11:36:14;96807.75;;;21.81;61.53
14689;BME280;7432;48.728;9.154;2022-10-16T11:38:48;96806.09;;;21.87;61.60
14689;BME280;7432;48.728;9.154;2022-10-16T11:41:24;96800.88;;;21.68;62.78
14689;BME280;7432;48.728;9.154;2022-10-16T11:44:03;96812.31;;;21.56;65.26
14689;BME280;7432;48.728;9.154;2022-10-16T11:46:34;96809.53;;;21.39;65.62
14689;BME280;7432;48.728;9.154;2022-10-16T11:49:08;96806.44;;;21.42;65.03
14689;BME280;7432;48.728;9.154;2022-10-16T11:51:39;96802.81;;;21.43;64.32
14689;BME280;7432;48.728;9.154;2022-10-16T11:54:16;96802.31;;;21.35;63.47
14689;BME280;7432;48.728;9.154;2022-10-16T11:56:48;96787.53;;;21.40;63.34
14689;BME280;7432;48.728;9.154;2022-10-16T11:59:24;96794.50;;;21.46;62.12
14689;BME280;7432;48.728;9.154;2022-10-16T12:01:57;96784.09;;;21.40;63.04
14689;BME280;7432;48.728;9.154;2022-10-16T12:04:30;96799.47;;;21.36;63.21
14689;BME280;7432;48.728;9.154;2022-10-16T12:07:02;96794.88;;;21.32;63.05
14689;BME280;7432;48.728;9.154;2022-10-16T12:09:32;96791.47;;;21.31;64.08
14689;BME280;7432;48.728;9.154;2022-10-16T12:12:01;96786.94;;;21.38;62.75
14689;BME280;7432;48.728;9.154;2022-10-16T12:14:37;96780.34;;;21.36;62.39
14689;BME280;7432;48.728;9.154;2022-10-16T12:17:23;96798.09;;;21.34;62.10
14689;BME280;7432;48.728;9.154;2022-10-16T12:19:58;96783.09;;;21.41;62.05
14689;BME280;7432;48.728;9.154;2022-10-16T12:22:27;96796.03;;;21.54;60.10
14689;BME280;7432;48.728;9.154;2022-10-16T12:24:54;96789.66;;;21.61;60.15
14689;BME280;7432;48.728;9.154;2022-10-16T12:27:24;96798.31;;;21.80;60.11
14689;BME280;7432;48.728;9.154;2022-10-16T12:29:57;96801.06;;;21.85;60.14
14689;BME280;7432;48.728;9.154;2022-10-16T12:32:30;96807.59;;;21.94;60.91
14689;BME280;7432;48.728;9.154;2022-10-16T12:34:58;96805.56;;;21.96;61.14
14689;BME280;7432;48.728;9.154;2022-10-16T12:37:26;96807.19;;;22.09;59.05
14689;BME280;7432;48.728;9.154;2022-10-16T12:39:54;96795.88;;;21.97;59.04
14689;BME280;7432;48.728;9.154;2022-10-16T12:42:31;96806.50;;;22.02;59.29
14689;BME280;7432;48.728;9.154;2022-10-16T12:45:00;96795.41;;;21.88;60.43
14689;BME280;7432;48.728;9.154;2022-10-16T12:47:47;96794.44;;;21.82;60.50
14689;BME280;7432;48.728;9.154;2022-10-16T12:50:31;96795.63;;;21.87;61.49
14689;BME280;7432;48.728;9.154;2022-10-16T12:52:58;96795.44;;;21.81;62.81
14689;BME280;7432;48.728;9.154;2022-10-16T12:55:24;96793.94;;;21.74;62.57
14689;BME280;7432;48.728;9.154;2022-10-16T12:58:16;96802.31;;;21.82;61.20
14689;BME280;7432;48.728;9.154;2022-10-16T13:00:52;96800.25;;;21.84;61.25
14689;BME280;7432;48.728;9.154;2022-10-16T13:03:48;96806.66;;;21.89;61.55
14689;BME280;7432;48.728;9.154;2022-10-16T13:06:27;96816.19;;;22.01;60.70
14689;BME280;7432;48.728;9.154;2022-10-16T13:09:11;96817.25;;;22.12;60.95
14689;BME280;7432;48.728;9.154;2022-10-16T13:12:02;96820.91;;;22.22;61.19
14689;BME280;7432;48.728;9.154;2022-10-16T13:17:43;96803.81;;;22.20;59.94
14689;BME280;7432;48.728;9.154;2022-10-16T13:20:18;96816.81;;;22.15;60.30
14689;BME280;7432;48.728;9.154;2022-10-16T13:22:54;96822.44;;;22.00;61.33